createdAt,value
2019-02-24T00:01:08.748Z,46.68
2019-02-24T00:06:12.240Z,46.72
2019-02-24T00:11:15.729Z,46.76
2019-02-24T00:16:19.233Z,46.73
2019-02-24T00:21:22.715Z,46.77
2019-02-24T00:26:26.209Z,46.75
2019-02-24T00:31:29.704Z,46.68
2019-02-24T00:36:33.197Z,46.73
2019-02-24T00:41:36.691Z,46.74
2019-02-24T00:46:40.184Z,46.78
2019-02-24T00:51:43.675Z,46.77
2019-02-24T00:56:47.168Z,46.78
2019-02-24T01:01:51.226Z,46.80
2019-02-24T01:06:54.713Z,46.88
2019-02-24T01:11:58.208Z,46.88
2019-02-24T01:17:01.708Z,46.90
2019-02-24T01:22:05.204Z,46.91
2019-02-24T01:27:08.695Z,46.98
2019-02-24T01:32:12.186Z,46.91
2019-02-24T01:37:15.677Z,46.98
2019-02-24T01:42:19.176Z,46.96
2019-02-24T01:47:22.669Z,46.96
2019-02-24T01:52:26.157Z,47.07
2019-02-24T01:57:29.663Z,47.14
2019-02-24T02:02:33.161Z,46.99
2019-02-24T02:07:36.656Z,47.04
2019-02-24T02:12:40.153Z,47.01
2019-02-24T02:17:43.641Z,47.01
2019-02-24T02:22:47.132Z,47.00
2019-02-24T02:27:50.635Z,47.01
2019-02-24T02:32:54.126Z,47.01
2019-02-24T02:37:57.636Z,46.97
2019-02-24T02:43:01.136Z,46.99
2019-02-24T02:48:04.626Z,47.02
2019-02-24T02:53:08.129Z,47.01
2019-02-24T02:58:11.597Z,47.08
2019-02-24T03:03:15.091Z,47.07
2019-02-24T03:08:18.648Z,47.09
2019-02-24T03:13:22.138Z,47.13
2019-02-24T03:18:26.178Z,47.13
2019-02-24T03:23:29.661Z,47.12
2019-02-24T03:28:33.140Z,47.16
2019-02-24T03:33:36.615Z,47.09
2019-02-24T03:38:40.088Z,47.12
2019-02-24T03:43:43.558Z,47.06
2019-02-24T03:48:47.031Z,47.05
2019-02-24T03:53:50.574Z,47.04
2019-02-24T03:58:54.080Z,47.02
2019-02-24T04:03:57.539Z,47.07
2019-02-24T04:09:01.008Z,47.08
2019-02-24T04:14:04.523Z,47.09
2019-02-24T04:19:08.003Z,47.05
2019-02-24T04:24:11.875Z,47.08
2019-02-24T04:29:24.336Z,47.15
2019-02-24T04:34:20.564Z,47.17
2019-02-24T04:39:24.041Z,47.21
2019-02-24T04:44:27.514Z,47.26
2019-02-24T04:49:30.988Z,47.17
2019-02-24T04:54:34.470Z,47.22
2019-02-24T04:59:37.937Z,47.19
2019-02-24T05:04:41.409Z,47.13
2019-02-24T05:09:44.881Z,47.08
2019-02-24T05:14:48.352Z,47.13
2019-02-24T05:19:51.873Z,47.08
2019-02-24T05:24:55.333Z,47.08
2019-02-24T05:29:58.806Z,47.11
2019-02-24T05:35:02.402Z,47.08
2019-02-24T05:40:06.321Z,47.08
2019-02-24T05:45:09.797Z,47.09
2019-02-24T05:50:13.264Z,47.06
2019-02-24T05:55:16.735Z,47.04
2019-02-24T06:00:20.209Z,47.04
2019-02-24T06:05:23.681Z,47.05
2019-02-24T06:10:27.154Z,47.02
2019-02-24T06:15:30.624Z,46.99
2019-02-24T06:20:34.093Z,47.00
2019-02-24T06:25:37.613Z,46.95
2019-02-24T06:30:41.039Z,47.01
2019-02-24T06:35:44.510Z,47.04
2019-02-24T06:40:47.993Z,47.01
2019-02-24T06:45:51.463Z,47.03
2019-02-24T06:50:59.609Z,46.99
2019-02-24T06:56:03.083Z,47.03
2019-02-24T07:01:06.558Z,47.01
2019-02-24T07:06:10.031Z,46.98
2019-02-24T07:11:13.507Z,47.03
2019-02-24T07:16:16.980Z,46.97
2019-02-24T07:21:20.450Z,47.01
2019-02-24T07:26:23.928Z,47.01
2019-02-24T07:31:27.407Z,47.02
2019-02-24T07:36:30.879Z,47.02
2019-02-24T07:41:34.359Z,47.03
2019-02-24T07:46:37.835Z,47.06
2019-02-24T07:51:41.310Z,47.07
2019-02-24T07:56:44.780Z,47.04
2019-02-24T08:01:48.254Z,47.07
2019-02-24T08:06:51.736Z,32.80
2019-02-24T08:11:55.214Z,24.28
2019-02-24T08:16:58.687Z,25.54
2019-02-24T08:22:02.158Z,28.87
2019-02-24T08:27:05.633Z,30.65
2019-02-24T08:32:09.106Z,32.76
2019-02-24T08:37:12.582Z,35.31
2019-02-24T08:42:16.055Z,35.26
2019-02-24T08:47:19.525Z,36.06
2019-02-24T08:52:22.997Z,36.62
2019-02-24T08:57:26.465Z,37.26
2019-02-24T09:02:29.939Z,37.75
2019-02-24T09:07:33.417Z,38.22
2019-02-24T09:12:36.891Z,38.71
2019-02-24T09:17:40.374Z,39.21
2019-02-24T09:22:44.789Z,39.69
2019-02-24T09:27:48.260Z,40.26
2019-02-24T09:32:51.731Z,40.65
2019-02-24T09:37:55.206Z,40.76
2019-02-24T09:42:58.681Z,41.09
2019-02-24T09:48:02.159Z,41.30
2019-02-24T09:53:05.636Z,41.67
2019-02-24T09:58:09.110Z,41.78
2019-02-24T10:03:13.445Z,41.82
2019-02-24T10:08:16.917Z,42.05
2019-02-24T10:13:20.392Z,42.08
2019-02-24T10:18:23.862Z,42.31
2019-02-24T10:23:27.338Z,42.42
2019-02-24T10:28:30.809Z,42.60
2019-02-24T10:33:34.280Z,42.65
2019-02-24T10:38:37.757Z,42.80
2019-02-24T10:43:41.266Z,42.81
2019-02-24T10:48:44.736Z,42.96
2019-02-24T10:53:48.247Z,43.00
2019-02-24T10:58:51.718Z,42.98
2019-02-24T11:03:55.209Z,42.96
2019-02-24T11:08:58.697Z,42.95
2019-02-24T11:14:02.186Z,43.04
2019-02-24T11:19:05.683Z,43.08
2019-02-24T11:24:09.171Z,43.11
2019-02-24T11:29:12.661Z,43.11
2019-02-24T11:34:16.151Z,43.15
2019-02-24T11:39:19.642Z,43.43
2019-02-24T11:44:23.137Z,43.59
2019-02-24T11:49:26.624Z,43.72
2019-02-24T11:54:30.115Z,43.86
2019-02-24T11:59:33.605Z,43.84
2019-02-24T12:04:37.099Z,43.84
2019-02-24T12:09:40.606Z,44.09
2019-02-24T12:14:44.084Z,44.01
2019-02-24T12:19:47.580Z,43.98
2019-02-24T12:24:51.077Z,43.75
2019-02-24T12:29:54.569Z,43.33
2019-02-24T12:34:58.053Z,40.95
2019-02-24T12:40:01.545Z,39.84
2019-02-24T12:45:07.169Z,39.05
2019-02-24T12:50:17.564Z,38.44
2019-02-24T12:55:21.048Z,38.35
2019-02-24T13:00:26.444Z,38.06
2019-02-24T13:05:29.943Z,37.50
2019-02-24T13:10:33.439Z,37.50
2019-02-24T13:15:36.931Z,37.38
2019-02-24T13:20:40.418Z,37.36
2019-02-24T13:25:43.916Z,37.08
2019-02-24T13:30:47.473Z,37.34
2019-02-24T13:35:50.961Z,37.72
2019-02-24T13:40:54.451Z,38.08
2019-02-24T13:45:57.944Z,37.96
2019-02-24T13:51:01.428Z,38.12
2019-02-24T13:56:05.098Z,38.09
2019-02-24T14:01:08.583Z,37.93
2019-02-24T14:06:12.073Z,37.97
2019-02-24T14:11:15.557Z,37.98
2019-02-24T14:16:19.050Z,37.90
2019-02-24T14:21:22.542Z,37.86
2019-02-24T14:26:26.034Z,37.89
2019-02-24T14:31:29.594Z,37.87
2019-02-24T14:36:33.093Z,37.83
2019-02-24T14:41:36.584Z,37.92
2019-02-24T14:46:40.072Z,38.02
2019-02-24T14:51:43.566Z,38.02
2019-02-24T14:56:47.063Z,37.99
2019-02-24T15:01:50.560Z,38.06
2019-02-24T15:06:54.056Z,38.15
2019-02-24T15:11:57.546Z,38.22
2019-02-24T15:17:01.038Z,38.40
2019-02-24T15:22:04.535Z,38.54
2019-02-24T15:27:08.036Z,38.78
2019-02-24T15:32:11.531Z,38.83
2019-02-24T15:37:15.024Z,38.99
2019-02-24T15:42:18.519Z,39.17
2019-02-24T15:47:22.353Z,39.40
2019-02-24T15:52:25.838Z,39.51
2019-02-24T15:57:29.331Z,39.61
2019-02-24T16:02:32.819Z,39.72
2019-02-24T16:07:36.307Z,39.84
2019-02-24T16:12:39.793Z,39.97
2019-02-24T16:17:43.306Z,40.05
2019-02-24T16:22:46.773Z,40.18
2019-02-24T16:27:50.265Z,40.31
2019-02-24T16:32:53.770Z,40.39
2019-02-24T16:37:57.258Z,40.51
2019-02-24T16:43:00.744Z,40.61
2019-02-24T16:48:04.313Z,40.71
2019-02-24T16:53:07.793Z,40.85
2019-02-24T16:58:11.273Z,40.90
2019-02-24T17:03:19.830Z,40.95
2019-02-24T17:08:19.940Z,41.04
2019-02-24T17:13:23.416Z,41.11
2019-02-24T17:18:26.883Z,41.22
2019-02-24T17:23:30.357Z,41.25
2019-02-24T17:28:33.833Z,41.30
2019-02-24T17:33:37.407Z,41.38
2019-02-24T17:38:40.884Z,41.47
2019-02-24T17:43:44.361Z,41.63
2019-02-24T17:48:47.830Z,41.68
2019-02-24T17:53:51.301Z,41.78
2019-02-24T17:58:54.774Z,41.81
2019-02-24T18:03:58.256Z,42.06
2019-02-24T18:09:01.729Z,42.02
2019-02-24T18:14:05.198Z,42.04
2019-02-24T18:19:08.670Z,42.10
2019-02-24T18:24:12.143Z,42.14
2019-02-24T18:29:15.619Z,42.19
2019-02-24T18:34:19.089Z,42.31
2019-02-24T18:39:22.563Z,42.37
2019-02-24T18:44:27.679Z,42.43
2019-02-24T18:49:31.150Z,42.45
2019-02-24T18:54:35.134Z,42.49
2019-02-24T18:59:38.665Z,42.52
2019-02-24T19:04:42.142Z,42.57
2019-02-24T19:09:45.628Z,42.60
2019-02-24T19:14:49.106Z,42.62
2019-02-24T19:19:52.586Z,42.66
2019-02-24T19:24:56.058Z,42.71
2019-02-24T19:29:59.530Z,42.76
2019-02-24T19:35:03.076Z,42.82
2019-02-24T19:40:09.752Z,42.88
2019-02-24T19:45:15.564Z,42.93
2019-02-24T19:50:19.104Z,42.95
2019-02-24T19:55:22.584Z,43.00
2019-02-24T20:00:26.806Z,43.06
2019-02-24T20:05:30.271Z,43.07
2019-02-24T20:10:33.747Z,43.11
2019-02-24T20:15:37.226Z,43.19
2019-02-24T20:20:40.698Z,43.24
2019-02-24T20:25:44.176Z,42.98
2019-02-24T20:30:47.647Z,42.98
2019-02-24T20:35:51.122Z,43.39
2019-02-24T20:40:54.592Z,43.44
2019-02-24T20:45:58.076Z,43.48
2019-02-24T20:51:01.552Z,43.50
2019-02-24T20:56:05.095Z,43.56
2019-02-24T21:01:10.210Z,43.57
2019-02-24T21:06:13.686Z,43.59
2019-02-24T21:11:17.164Z,43.71
2019-02-24T21:16:20.639Z,43.76
2019-02-24T21:21:24.118Z,43.79
2019-02-24T21:26:27.589Z,43.82
2019-02-24T21:31:31.067Z,43.81
2019-02-24T21:36:34.536Z,43.82
2019-02-24T21:41:38.011Z,43.81
2019-02-24T21:46:41.482Z,43.81
2019-02-24T21:51:44.964Z,43.80
2019-02-24T21:56:48.441Z,43.82
2019-02-24T22:01:51.916Z,43.81
2019-02-24T22:06:55.385Z,43.79
2019-02-24T22:11:59.530Z,43.81
2019-02-24T22:17:03.001Z,43.81
2019-02-24T22:22:06.468Z,43.80
2019-02-24T22:27:09.943Z,43.81
2019-02-24T22:32:13.417Z,43.78
2019-02-24T22:37:16.886Z,43.80
2019-02-24T22:42:20.361Z,43.80
2019-02-24T22:47:23.844Z,43.80
2019-02-24T22:52:27.316Z,43.77
2019-02-24T22:57:30.793Z,43.76
2019-02-24T23:02:34.268Z,43.64
2019-02-24T23:07:37.746Z,43.60
2019-02-24T23:12:41.384Z,43.61
2019-02-24T23:17:44.858Z,43.67
2019-02-24T23:22:48.338Z,43.68
2019-02-24T23:27:51.814Z,43.70
2019-02-24T23:32:55.288Z,43.70
2019-02-24T23:37:58.765Z,43.72
2019-02-24T23:43:02.242Z,43.74
2019-02-24T23:48:05.722Z,43.75
2019-02-24T23:53:09.198Z,43.74
2019-02-24T23:58:13.136Z,43.76
